Hlavní strana
METAR-TAF:

METAR-TAF

Letiště :

Southern Illinois Airport

Carbondale / Murphysboro, Illinois, Spojené státy americké

zeměpisná šířka: 37-46-59N, zeměpisná délka: 089-14-42W, výška: 125 m

Aktuální stav počasí

Zpráva byla vytvořena před 1 hodinou a 4 minutami, v 09:52 UTC
Severoseverozápadní vítr 9 kt
Teplota -2°C
Vlhkost vzduchu 59%
Tlak 1021 hPa
Viditelnost: 16.1 km
Jasno

METAR: KMDH 100952Z AUTO 33009KT 10SM CLR M02/M09 A3014 RMK AO2 SLP209 T10221089

Čas: 04:56 (10:56 UTC)


TAF: chybějící

Stav a předpovědi počasí z více než 4 000 letišť (zprávy METAR a TAF).

Červené a žluté tečky na mapě představují dostupné meteorologické stanice.

Když kurzor umístíte na tečku, zobrazí se název stanice.

Pak kliknutím zobrazíte stav a předpověď počasí.

Chcete-li změnit mapu, kliknutím na zelené tlačítko se znaménkem +mapu přiblížíte, kliknutím na zelené tlačítko se znaménkem – mapu oddálíte a kliknutím na zelené šipky přejdete na sousední mapy.


METAR-TAF: